Terminal Aerodrome Forecast
Issued by NWS

Home | Current Version | Previous Version | Text Only | Print | Product List | Glossary On
Versions: 1 2 3 4 5 6 7 8 9 10 11 12 13 14 15 16 17 18 19 20 21 22 23 24 25 26 27 28
000
FTUS45 KSLC 290530
TAFENV
TAF
KENV 290530Z 2906/3006 VRB04KT P6SM SCT200
     FM291400 10007KT P6SM SCT200
     FM291800 14010G18KT P6SM FEW090 SCT150
     FM292100 20015G22KT P6SM SCT090 BKN150
     FM300200 28011KT P6SM FEW090 SCT150
      AMD LTD TO CLD VIS AND WIND=

USA.gov is the U.S. government's official web portal to all federal, state and local government web resources and services.